sensor_id;sensor_type;location;lat;lon;timestamp;pressure;altitude;pressure_sealevel;temperature;humidity
55468;BME280;41332;42.702;23.200;2023-06-04T00:01:07;94120.63;;;15.16;93.37
55468;BME280;41332;42.702;23.200;2023-06-04T00:03:34;94116.22;;;15.05;94.59
55468;BME280;41332;42.702;23.200;2023-06-04T00:05:59;94122.22;;;15.02;94.81
55468;BME280;41332;42.702;23.200;2023-06-04T00:08:24;94121.50;;;15.05;94.41
55468;BME280;41332;42.702;23.200;2023-06-04T00:10:50;94117.34;;;15.04;93.81
55468;BME280;41332;42.702;23.200;2023-06-04T00:13:15;94116.22;;;15.05;93.39
55468;BME280;41332;42.702;23.200;2023-06-04T00:15:41;94112.81;;;15.04;93.49
55468;BME280;41332;42.702;23.200;2023-06-04T00:18:06;94115.47;;;15.04;93.29
55468;BME280;41332;42.702;23.200;2023-06-04T00:20:32;94119.31;;;15.07;93.33
55468;BME280;41332;42.702;23.200;2023-06-04T00:22:57;94111.00;;;15.08;93.06
55468;BME280;41332;42.702;23.200;2023-06-04T00:25:23;94114.75;;;15.07;92.94
55468;BME280;41332;42.702;23.200;2023-06-04T00:27:48;94114.69;;;15.04;92.60
55468;BME280;41332;42.702;23.200;2023-06-04T00:30:14;94114.28;;;15.02;93.21
55468;BME280;41332;42.702;23.200;2023-06-04T00:32:39;94112.41;;;15.02;93.27
55468;BME280;41332;42.702;23.200;2023-06-04T00:35:05;94108.22;;;15.01;92.87
55468;BME280;41332;42.702;23.200;2023-06-04T00:37:31;94109.00;;;15.02;92.51
55468;BME280;41332;42.702;23.200;2023-06-04T00:39:56;94105.16;;;14.99;92.10
55468;BME280;41332;42.702;23.200;2023-06-04T00:42:23;94116.38;;;14.92;92.37
55468;BME280;41332;42.702;23.200;2023-06-04T00:44:48;94111.09;;;14.92;92.38
55468;BME280;41332;42.702;23.200;2023-06-04T00:47:15;94116.97;;;14.86;91.94
55468;BME280;41332;42.702;23.200;2023-06-04T00:49:41;94107.16;;;14.86;91.87
55468;BME280;41332;42.702;23.200;2023-06-04T00:52:10;94100.25;;;14.81;92.05
55468;BME280;41332;42.702;23.200;2023-06-04T00:54:36;94099.44;;;14.77;91.62
55468;BME280;41332;42.702;23.200;2023-06-04T00:57:02;94102.78;;;14.74;91.77
55468;BME280;41332;42.702;23.200;2023-06-04T00:59:29;94100.81;;;14.71;91.70
55468;BME280;41332;42.702;23.200;2023-06-04T01:02:09;94101.66;;;14.75;91.61
55468;BME280;41332;42.702;23.200;2023-06-04T01:07:14;94100.81;;;14.71;90.93
55468;BME280;41332;42.702;23.200;2023-06-04T01:09:40;94099.09;;;14.63;90.74
55468;BME280;41332;42.702;23.200;2023-06-04T01:12:07;94111.13;;;14.60;91.06
55468;BME280;41332;42.702;23.200;2023-06-04T01:14:33;94106.94;;;14.59;90.99
55468;BME280;41332;42.702;23.200;2023-06-04T01:17:07;94111.31;;;14.51;92.19
55468;BME280;41332;42.702;23.200;2023-06-04T01:19:44;94108.66;;;14.51;92.77
55468;BME280;41332;42.702;23.200;2023-06-04T01:22:36;94108.25;;;14.49;93.00
55468;BME280;41332;42.702;23.200;2023-06-04T01:25:05;94107.91;;;14.51;92.75
55468;BME280;41332;42.702;23.200;2023-06-04T01:27:31;94101.78;;;14.47;93.46
55468;BME280;41332;42.702;23.200;2023-06-04T01:29:58;94104.16;;;14.52;93.36
55468;BME280;41332;42.702;23.200;2023-06-04T01:32:25;94108.66;;;14.51;93.13
55468;BME280;41332;42.702;23.200;2023-06-04T01:34:51;94107.13;;;14.50;93.30
55468;BME280;41332;42.702;23.200;2023-06-04T01:37:17;94115.16;;;14.54;93.15
55468;BME280;41332;42.702;23.200;2023-06-04T01:39:43;94118.88;;;14.53;92.70
55468;BME280;41332;42.702;23.200;2023-06-04T01:42:09;94116.94;;;14.50;93.18
55468;BME280;41332;42.702;23.200;2023-06-04T01:44:34;94121.53;;;14.53;93.42
55468;BME280;41332;42.702;23.200;2023-06-04T01:47:00;94117.78;;;14.54;93.40
55468;BME280;41332;42.702;23.200;2023-06-04T01:49:28;94121.97;;;14.55;93.46
55468;BME280;41332;42.702;23.200;2023-06-04T01:51:53;94123.78;;;14.51;94.05
55468;BME280;41332;42.702;23.200;2023-06-04T01:54:19;94124.97;;;14.54;94.16
55468;BME280;41332;42.702;23.200;2023-06-04T01:56:44;94128.72;;;14.53;94.04
55468;BME280;41332;42.702;23.200;2023-06-04T01:59:11;94126.41;;;14.51;93.97
55468;BME280;41332;42.702;23.200;2023-06-04T02:01:37;94125.97;;;14.49;94.33
55468;BME280;41332;42.702;23.200;2023-06-04T02:04:03;94129.41;;;14.49;94.19
55468;BME280;41332;42.702;23.200;2023-06-04T02:06:28;94126.81;;;14.53;95.17
55468;BME280;41332;42.702;23.200;2023-06-04T02:08:55;94123.06;;;14.54;93.81
55468;BME280;41332;42.702;23.200;2023-06-04T02:11:20;94127.59;;;14.54;93.47
55468;BME280;41332;42.702;23.200;2023-06-04T02:13:46;94132.81;;;14.50;93.21
55468;BME280;41332;42.702;23.200;2023-06-04T02:16:11;94134.16;;;14.44;93.13
55468;BME280;41332;42.702;23.200;2023-06-04T02:18:36;94147.03;;;14.45;94.36
55468;BME280;41332;42.702;23.200;2023-06-04T02:21:02;94131.88;;;14.42;93.61
55468;BME280;41332;42.702;23.200;2023-06-04T02:23:27;94142.78;;;14.41;94.41
55468;BME280;41332;42.702;23.200;2023-06-04T02:25:53;94143.97;;;14.43;94.17
55468;BME280;41332;42.702;23.200;2023-06-04T02:28:18;94149.34;;;14.47;95.06
55468;BME280;41332;42.702;23.200;2023-06-04T02:30:45;94150.03;;;14.44;94.63
55468;BME280;41332;42.702;23.200;2023-06-04T02:33:11;94152.31;;;14.45;94.65
55468;BME280;41332;42.702;23.200;2023-06-04T02:35:37;94154.13;;;14.41;94.76
55468;BME280;41332;42.702;23.200;2023-06-04T02:38:02;94159.31;;;14.38;95.90
55468;BME280;41332;42.702;23.200;2023-06-04T02:40:28;94155.31;;;14.44;95.29
55468;BME280;41332;42.702;23.200;2023-06-04T02:42:55;94159.75;;;14.40;95.62
55468;BME280;41332;42.702;23.200;2023-06-04T02:45:21;94159.84;;;14.43;95.09
55468;BME280;41332;42.702;23.200;2023-06-04T02:47:47;94163.31;;;14.47;94.27
55468;BME280;41332;42.702;23.200;2023-06-04T02:50:13;94162.22;;;14.48;94.10
55468;BME280;41332;42.702;23.200;2023-06-04T02:52:39;94167.75;;;14.43;94.05
55468;BME280;41332;42.702;23.200;2023-06-04T02:55:06;94168.59;;;14.15;94.90
55468;BME280;41332;42.702;23.200;2023-06-04T02:57:35;94165.53;;;14.29;94.68
55468;BME280;41332;42.702;23.200;2023-06-04T03:00:01;94177.75;;;14.34;94.86
55468;BME280;41332;42.702;23.200;2023-06-04T03:02:27;94173.47;;;14.29;94.65
55468;BME280;41332;42.702;23.200;2023-06-04T03:04:53;94169.97;;;14.25;95.45
55468;BME280;41332;42.702;23.200;2023-06-04T03:07:20;94164.59;;;14.22;95.28
55468;BME280;41332;42.702;23.200;2023-06-04T03:09:48;94172.09;;;14.20;95.38
55468;BME280;41332;42.702;23.200;2023-06-04T03:12:13;94174.72;;;14.04;96.69
55468;BME280;41332;42.702;23.200;2023-06-04T03:14:38;94172.53;;;14.06;96.24
55468;BME280;41332;42.702;23.200;2023-06-04T03:17:05;94178.81;;;14.01;97.25
55468;BME280;41332;42.702;23.200;2023-06-04T03:19:40;94174.53;;;13.96;97.40
55468;BME280;41332;42.702;23.200;2023-06-04T03:22:06;94173.34;;;13.94;98.09
55468;BME280;41332;42.702;23.200;2023-06-04T03:24:36;94179.91;;;14.00;97.89
55468;BME280;41332;42.702;23.200;2023-06-04T03:27:03;94180.22;;;14.11;97.42
55468;BME280;41332;42.702;23.200;2023-06-04T03:29:29;94182.06;;;14.10;97.13
55468;BME280;41332;42.702;23.200;2023-06-04T03:31:58;94186.06;;;14.04;97.66
55468;BME280;41332;42.702;23.200;2023-06-04T03:34:24;94177.97;;;14.13;97.27
55468;BME280;41332;42.702;23.200;2023-06-04T03:36:53;94179.41;;;14.10;97.21
55468;BME280;41332;42.702;23.200;2023-06-04T03:39:19;94184.84;;;14.01;97.96
55468;BME280;41332;42.702;23.200;2023-06-04T03:41:44;94194.75;;;14.05;97.89
55468;BME280;41332;42.702;23.200;2023-06-04T03:44:12;94194.91;;;14.12;97.88
55468;BME280;41332;42.702;23.200;2023-06-04T03:46:38;94197.66;;;14.15;97.72
55468;BME280;41332;42.702;23.200;2023-06-04T03:49:03;94199.28;;;14.20;97.43
55468;BME280;41332;42.702;23.200;2023-06-04T03:51:28;94199.44;;;14.27;96.87
55468;BME280;41332;42.702;23.200;2023-06-04T03:53:54;94195.72;;;14.28;96.94
55468;BME280;41332;42.702;23.200;2023-06-04T03:56:20;94204.31;;;14.25;96.69
55468;BME280;41332;42.702;23.200;2023-06-04T03:58:46;94203.38;;;14.33;96.53
55468;BME280;41332;42.702;23.200;2023-06-04T04:01:12;94192.56;;;14.39;96.31
55468;BME280;41332;42.702;23.200;2023-06-04T04:03:37;94205.09;;;14.42;96.08
55468;BME280;41332;42.702;23.200;2023-06-04T04:06:02;94199.47;;;14.43;95.39
55468;BME280;41332;42.702;23.200;2023-06-04T04:08:28;94212.34;;;14.29;96.10
55468;BME280;41332;42.702;23.200;2023-06-04T04:10:57;94210.56;;;14.33;96.69
55468;BME280;41332;42.702;23.200;2023-06-04T04:13:22;94217.69;;;14.32;96.32
55468;BME280;41332;42.702;23.200;2023-06-04T04:15:48;94214.38;;;14.36;96.36
55468;BME280;41332;42.702;23.200;2023-06-04T04:18:17;94216.00;;;14.24;96.91
55468;BME280;41332;42.702;23.200;2023-06-04T04:20:45;94215.81;;;14.17;97.54
55468;BME280;41332;42.702;23.200;2023-06-04T04:23:11;94213.78;;;14.26;97.39
55468;BME280;41332;42.702;23.200;2023-06-04T04:25:36;94215.56;;;14.22;97.22
55468;BME280;41332;42.702;23.200;2023-06-04T04:28:01;94219.94;;;14.30;97.41
55468;BME280;41332;42.702;23.200;2023-06-04T04:30:27;94216.00;;;14.24;97.76
55468;BME280;41332;42.702;23.200;2023-06-04T04:32:53;94215.31;;;14.27;97.62
55468;BME280;41332;42.702;23.200;2023-06-04T04:35:19;94215.91;;;14.21;98.57
55468;BME280;41332;42.702;23.200;2023-06-04T04:37:44;94216.00;;;14.24;98.41
55468;BME280;41332;42.702;23.200;2023-06-04T04:40:10;94218.38;;;14.29;99.40
55468;BME280;41332;42.702;23.200;2023-06-04T04:42:37;94219.88;;;14.14;100.00
55468;BME280;41332;42.702;23.200;2023-06-04T04:45:03;94221.34;;;14.12;100.00
55468;BME280;41332;42.702;23.200;2023-06-04T04:47:29;94217.44;;;14.22;99.48
55468;BME280;41332;42.702;23.200;2023-06-04T04:49:55;94225.81;;;14.24;99.83
55468;BME280;41332;42.702;23.200;2023-06-04T04:52:20;94230.59;;;14.34;100.00
55468;BME280;41332;42.702;23.200;2023-06-04T04:54:45;94226.75;;;14.31;100.00
55468;BME280;41332;42.702;23.200;2023-06-04T04:57:11;94230.75;;;14.41;100.00
55468;BME280;41332;42.702;23.200;2023-06-04T04:59:36;94221.81;;;14.46;100.00
55468;BME280;41332;42.702;23.200;2023-06-04T05:02:01;94228.69;;;14.50;100.00
55468;BME280;41332;42.702;23.200;2023-06-04T05:04:27;94231.88;;;14.56;100.00
55468;BME280;41332;42.702;23.200;2023-06-04T05:06:52;94229.06;;;14.65;100.00
55468;BME280;41332;42.702;23.200;2023-06-04T05:09:18;94232.13;;;14.67;100.00
55468;BME280;41332;42.702;23.200;2023-06-04T05:11:43;94230.88;;;14.77;100.00
55468;BME280;41332;42.702;23.200;2023-06-04T05:14:09;94228.13;;;14.73;99.78
55468;BME280;41332;42.702;23.200;2023-06-04T05:16:36;94234.34;;;14.81;100.00
55468;BME280;41332;42.702;23.200;2023-06-04T05:19:03;94232.13;;;14.83;99.65
55468;BME280;41332;42.702;23.200;2023-06-04T05:21:28;94236.03;;;14.89;98.78
55468;BME280;41332;42.702;23.200;2023-06-04T05:23:54;94232.28;;;14.90;97.33
55468;BME280;41332;42.702;23.200;2023-06-04T05:26:20;94234.34;;;14.81;98.08
55468;BME280;41332;42.702;23.200;2023-06-04T05:28:52;94236.47;;;14.91;97.86
55468;BME280;41332;42.702;23.200;2023-06-04T05:31:18;94239.38;;;14.86;97.20
55468;BME280;41332;42.702;23.200;2023-06-04T05:33:43;94241.25;;;14.86;96.22
55468;BME280;41332;42.702;23.200;2023-06-04T05:36:09;94239.78;;;14.88;95.54
55468;BME280;41332;42.702;23.200;2023-06-04T05:38:34;94239.47;;;14.90;95.59
55468;BME280;41332;42.702;23.200;2023-06-04T05:41:01;94248.59;;;14.92;95.74
55468;BME280;41332;42.702;23.200;2023-06-04T05:43:27;94260.00;;;14.96;95.93
55468;BME280;41332;42.702;23.200;2023-06-04T05:45:52;94258.03;;;14.93;96.63
55468;BME280;41332;42.702;23.200;2023-06-04T05:48:18;94252.50;;;14.98;96.41
55468;BME280;41332;42.702;23.200;2023-06-04T05:50:43;94256.19;;;14.94;95.45
55468;BME280;41332;42.702;23.200;2023-06-04T05:53:09;94256.06;;;15.06;95.34
55468;BME280;41332;42.702;23.200;2023-06-04T05:55:34;94256.16;;;15.10;96.01
55468;BME280;41332;42.702;23.200;2023-06-04T05:58:00;94258.44;;;15.11;95.32
55468;BME280;41332;42.702;23.200;2023-06-04T06:00:25;94261.53;;;15.13;95.30
55468;BME280;41332;42.702;23.200;2023-06-04T06:02:51;94263.25;;;15.06;94.15
55468;BME280;41332;42.702;23.200;2023-06-04T06:05:20;94265.63;;;15.11;95.48
55468;BME280;41332;42.702;23.200;2023-06-04T06:07:46;94265.63;;;15.11;95.57
55468;BME280;41332;42.702;23.200;2023-06-04T06:10:12;94267.16;;;15.12;93.98
55468;BME280;41332;42.702;23.200;2023-06-04T06:12:39;94277.88;;;15.19;94.09
55468;BME280;41332;42.702;23.200;2023-06-04T06:15:05;94274.31;;;15.27;93.84
55468;BME280;41332;42.702;23.200;2023-06-04T06:17:31;94270.53;;;15.28;93.18
55468;BME280;41332;42.702;23.200;2023-06-04T06:19:58;94279.16;;;15.25;93.23
55468;BME280;41332;42.702;23.200;2023-06-04T06:22:23;94277.28;;;15.26;91.56
55468;BME280;41332;42.702;23.200;2023-06-04T06:24:49;94286.84;;;15.30;90.71
55468;BME280;41332;42.702;23.200;2023-06-04T06:27:15;94282.50;;;15.22;91.08
55468;BME280;41332;42.702;23.200;2023-06-04T06:29:43;94284.13;;;15.11;89.50
55468;BME280;41332;42.702;23.200;2023-06-04T06:32:10;94271.97;;;14.90;89.22
55468;BME280;41332;42.702;23.200;2023-06-04T06:34:36;94277.16;;;15.03;89.61
55468;BME280;41332;42.702;23.200;2023-06-04T06:37:02;94281.16;;;15.12;89.27
55468;BME280;41332;42.702;23.200;2023-06-04T06:39:28;94277.03;;;15.15;87.66
55468;BME280;41332;42.702;23.200;2023-06-04T06:41:53;94282.00;;;15.16;89.56
55468;BME280;41332;42.702;23.200;2023-06-04T06:44:18;94282.25;;;15.11;90.30
55468;BME280;41332;42.702;23.200;2023-06-04T06:46:44;94281.47;;;15.27;90.90
55468;BME280;41332;42.702;23.200;2023-06-04T06:49:09;94286.22;;;15.37;90.49
55468;BME280;41332;42.702;23.200;2023-06-04T06:51:35;94276.59;;;15.29;87.60
55468;BME280;41332;42.702;23.200;2023-06-04T06:54:00;94286.03;;;15.46;91.33
55468;BME280;41332;42.702;23.200;2023-06-04T06:56:25;94287.44;;;15.59;89.80
55468;BME280;41332;42.702;23.200;2023-06-04T06:58:51;94293.91;;;15.62;87.79
55468;BME280;41332;42.702;23.200;2023-06-04T07:01:16;94288.16;;;15.76;87.55
55468;BME280;41332;42.702;23.200;2023-06-04T07:03:42;94287.13;;;15.80;88.16
55468;BME280;41332;42.702;23.200;2023-06-04T07:06:07;94287.78;;;15.93;88.43
55468;BME280;41332;42.702;23.200;2023-06-04T07:08:33;94292.91;;;16.06;87.49
55468;BME280;41332;42.702;23.200;2023-06-04T07:11:00;94295.50;;;16.02;86.95
55468;BME280;41332;42.702;23.200;2023-06-04T07:13:26;94296.47;;;16.13;85.45
55468;BME280;41332;42.702;23.200;2023-06-04T07:15:52;94294.75;;;16.02;84.76
55468;BME280;41332;42.702;23.200;2023-06-04T07:18:17;94307.84;;;16.14;85.75
55468;BME280;41332;42.702;23.200;2023-06-04T07:20:42;94303.25;;;15.91;85.37
55468;BME280;41332;42.702;23.200;2023-06-04T07:23:08;94306.78;;;15.99;86.12
55468;BME280;41332;42.702;23.200;2023-06-04T07:25:34;94299.47;;;15.92;84.83
55468;BME280;41332;42.702;23.200;2023-06-04T07:27:59;94320.88;;;15.84;85.28
55468;BME280;41332;42.702;23.200;2023-06-04T07:30:25;94317.13;;;15.85;84.03
55468;BME280;41332;42.702;23.200;2023-06-04T07:32:51;94317.66;;;15.94;85.42
55468;BME280;41332;42.702;23.200;2023-06-04T07:35:16;94314.47;;;16.04;84.80
55468;BME280;41332;42.702;23.200;2023-06-04T07:37:42;94321.56;;;16.20;84.97
55468;BME280;41332;42.702;23.200;2023-06-04T07:40:11;94323.19;;;16.24;85.32
55468;BME280;41332;42.702;23.200;2023-06-04T07:42:36;94330.78;;;16.06;84.43
55468;BME280;41332;42.702;23.200;2023-06-04T07:45:02;94333.16;;;16.11;84.36
55468;BME280;41332;42.702;23.200;2023-06-04T07:47:28;94336.28;;;16.17;85.18
55468;BME280;41332;42.702;23.200;2023-06-04T07:49:53;94332.19;;;16.20;86.07
55468;BME280;41332;42.702;23.200;2023-06-04T07:52:19;94332.94;;;16.20;83.85
55468;BME280;41332;42.702;23.200;2023-06-04T07:54:44;94333.06;;;16.27;84.25
55468;BME280;41332;42.702;23.200;2023-06-04T07:57:09;94338.28;;;16.43;84.19
55468;BME280;41332;42.702;23.200;2023-06-04T07:59:35;94328.03;;;16.42;82.66
55468;BME280;41332;42.702;23.200;2023-06-04T08:02:00;94335.59;;;16.63;83.92
55468;BME280;41332;42.702;23.200;2023-06-04T08:04:26;94335.88;;;16.77;85.26
55468;BME280;41332;42.702;23.200;2023-06-04T08:06:52;94333.84;;;16.90;85.10
55468;BME280;41332;42.702;23.200;2023-06-04T08:09:18;94328.94;;;16.92;82.82
55468;BME280;41332;42.702;23.200;2023-06-04T08:11:43;94331.41;;;17.05;82.54
55468;BME280;41332;42.702;23.200;2023-06-04T08:14:10;94326.41;;;17.00;81.86
55468;BME280;41332;42.702;23.200;2023-06-04T08:16:36;94339.06;;;17.10;80.69
55468;BME280;41332;42.702;23.200;2023-06-04T08:19:02;94339.22;;;17.21;80.31
55468;BME280;41332;42.702;23.200;2023-06-04T08:21:28;94346.44;;;17.20;80.13
55468;BME280;41332;42.702;23.200;2023-06-04T08:23:54;94338.06;;;17.18;81.75
55468;BME280;41332;42.702;23.200;2023-06-04T08:26:20;94345.41;;;17.28;83.19
55468;BME280;41332;42.702;23.200;2023-06-04T08:28:50;94342.16;;;17.39;84.25
55468;BME280;41332;42.702;23.200;2023-06-04T08:31:15;94342.50;;;17.37;82.69
55468;BME280;41332;42.702;23.200;2023-06-04T08:33:42;94339.81;;;17.34;84.44
55468;BME280;41332;42.702;23.200;2023-06-04T08:36:10;94341.94;;;17.24;80.98
55468;BME280;41332;42.702;23.200;2023-06-04T08:38:35;94347.09;;;17.13;82.23
55468;BME280;41332;42.702;23.200;2023-06-04T08:41:15;94348.22;;;17.12;83.92
55468;BME280;41332;42.702;23.200;2023-06-04T08:43:42;94346.16;;;17.02;80.46
55468;BME280;41332;42.702;23.200;2023-06-04T08:46:09;94350.16;;;17.16;83.58
55468;BME280;41332;42.702;23.200;2023-06-04T08:48:35;94353.63;;;17.20;82.55
55468;BME280;41332;42.702;23.200;2023-06-04T08:51:06;94357.38;;;17.19;82.11
55468;BME280;41332;42.702;23.200;2023-06-04T08:53:36;94358.25;;;17.26;83.88
55468;BME280;41332;42.702;23.200;2023-06-04T08:56:05;94358.81;;;17.36;83.95
55468;BME280;41332;42.702;23.200;2023-06-04T08:58:35;94363.88;;;17.21;84.45
55468;BME280;41332;42.702;23.200;2023-06-04T09:01:01;94361.88;;;17.14;81.47
55468;BME280;41332;42.702;23.200;2023-06-04T09:03:28;94359.72;;;17.20;83.63
55468;BME280;41332;42.702;23.200;2023-06-04T09:05:55;94359.34;;;17.22;82.46
55468;BME280;41332;42.702;23.200;2023-06-04T09:08:22;94360.53;;;17.24;81.94
55468;BME280;41332;42.702;23.200;2023-06-04T09:10:50;94357.06;;;17.47;85.44
55468;BME280;41332;42.702;23.200;2023-06-04T09:13:19;94352.28;;;17.56;80.63
55468;BME280;41332;42.702;23.200;2023-06-04T09:15:58;94349.09;;;17.74;81.72
55468;BME280;41332;42.702;23.200;2023-06-04T09:18:25;94361.34;;;17.82;78.89
55468;BME280;41332;42.702;23.200;2023-06-04T09:21:08;94363.91;;;18.02;80.20
55468;BME280;41332;42.702;23.200;2023-06-04T09:23:36;94357.34;;;18.26;80.58
55468;BME280;41332;42.702;23.200;2023-06-04T09:26:11;94347.56;;;18.34;78.42
55468;BME280;41332;42.702;23.200;2023-06-04T09:28:41;94357.31;;;18.56;76.60
55468;BME280;41332;42.702;23.200;2023-06-04T09:31:25;94355.88;;;18.66;73.75
55468;BME280;41332;42.702;23.200;2023-06-04T09:33:53;94354.03;;;18.33;73.14
55468;BME280;41332;42.702;23.200;2023-06-04T09:36:18;94358.50;;;18.28;76.24
55468;BME280;41332;42.702;23.200;2023-06-04T09:38:45;94357.81;;;18.32;74.99
55468;BME280;41332;42.702;23.200;2023-06-04T09:41:16;94352.97;;;18.41;76.19
55468;BME280;41332;42.702;23.200;2023-06-04T09:43:41;94359.88;;;18.45;77.93
55468;BME280;41332;42.702;23.200;2023-06-04T09:46:17;94348.69;;;18.67;73.78
55468;BME280;41332;42.702;23.200;2023-06-04T09:48:59;94355.34;;;18.87;72.85
55468;BME280;41332;42.702;23.200;2023-06-04T09:51:24;94352.47;;;19.07;73.70
55468;BME280;41332;42.702;23.200;2023-06-04T09:53:57;94343.06;;;19.20;73.18
55468;BME280;41332;42.702;23.200;2023-06-04T09:56:24;94356.59;;;19.01;68.44
55468;BME280;41332;42.702;23.200;2023-06-04T09:58:49;94360.16;;;19.16;72.25
55468;BME280;41332;42.702;23.200;2023-06-04T10:01:19;94357.59;;;19.26;73.29
55468;BME280;41332;42.702;23.200;2023-06-04T10:03:47;94356.53;;;19.38;70.57
55468;BME280;41332;42.702;23.200;2023-06-04T10:06:16;94364.69;;;19.12;69.48
55468;BME280;41332;42.702;23.200;2023-06-04T10:08:45;94349.75;;;19.00;69.16
55468;BME280;41332;42.702;23.200;2023-06-04T10:11:12;94355.16;;;18.69;69.19
55468;BME280;41332;42.702;23.200;2023-06-04T10:13:51;94358.91;;;19.02;69.31
55468;BME280;41332;42.702;23.200;2023-06-04T10:16:19;94349.81;;;19.07;68.97
55468;BME280;41332;42.702;23.200;2023-06-04T10:18:45;94357.31;;;19.39;69.96
55468;BME280;41332;42.702;23.200;2023-06-04T10:21:13;94357.47;;;19.64;71.82
55468;BME280;41332;42.702;23.200;2023-06-04T10:23:39;94345.72;;;19.76;69.74
55468;BME280;41332;42.702;23.200;2023-06-04T10:26:06;94348.53;;;19.98;70.91
55468;BME280;41332;42.702;23.200;2023-06-04T10:28:33;94355.00;;;19.97;69.56
55468;BME280;41332;42.702;23.200;2023-06-04T10:30:59;94348.63;;;20.16;66.26
55468;BME280;41332;42.702;23.200;2023-06-04T10:33:24;94346.78;;;20.38;69.89
55468;BME280;41332;42.702;23.200;2023-06-04T10:35:54;94341.09;;;20.54;68.19
55468;BME280;41332;42.702;23.200;2023-06-04T10:38:23;94345.28;;;20.44;65.89
55468;BME280;41332;42.702;23.200;2023-06-04T10:40:49;94351.16;;;19.90;67.33
55468;BME280;41332;42.702;23.200;2023-06-04T10:43:15;94344.75;;;20.06;67.97
55468;BME280;41332;42.702;23.200;2023-06-04T10:45:44;94352.66;;;19.84;65.20
55468;BME280;41332;42.702;23.200;2023-06-04T10:48:11;94342.81;;;19.99;66.46
55468;BME280;41332;42.702;23.200;2023-06-04T10:50:51;94345.06;;;19.90;66.81
55468;BME280;41332;42.702;23.200;2023-06-04T10:53:18;94340.28;;;20.32;65.37
55468;BME280;41332;42.702;23.200;2023-06-04T10:55:45;94343.03;;;20.53;67.52
55468;BME280;41332;42.702;23.200;2023-06-04T10:58:11;94337.31;;;20.69;65.75
55468;BME280;41332;42.702;23.200;2023-06-04T11:00:47;94339.16;;;20.36;66.03
55468;BME280;41332;42.702;23.200;2023-06-04T11:03:14;94339.94;;;20.33;65.56
55468;BME280;41332;42.702;23.200;2023-06-04T11:05:45;94339.44;;;20.09;65.08
55468;BME280;41332;42.702;23.200;2023-06-04T11:08:12;94341.16;;;19.73;65.12
55468;BME280;41332;42.702;23.200;2023-06-04T11:10:41;94346.38;;;19.55;68.61
55468;BME280;41332;42.702;23.200;2023-06-04T11:13:07;94342.69;;;19.74;66.50
55468;BME280;41332;42.702;23.200;2023-06-04T11:18:08;94344.19;;;19.16;68.46
55468;BME280;41332;42.702;23.200;2023-06-04T11:20:33;94342.09;;;18.91;68.40
55468;BME280;41332;42.702;23.200;2023-06-04T11:22:59;94337.41;;;19.25;68.48
55468;BME280;41332;42.702;23.200;2023-06-04T11:25:28;94334.09;;;19.39;68.84
55468;BME280;41332;42.702;23.200;2023-06-04T11:27:56;94330.78;;;19.57;68.53
55468;BME280;41332;42.702;23.200;2023-06-04T11:30:23;94334.59;;;19.59;69.73
55468;BME280;41332;42.702;23.200;2023-06-04T11:32:49;94338.56;;;19.84;68.70
55468;BME280;41332;42.702;23.200;2023-06-04T11:35:15;94331.38;;;19.91;67.48
55468;BME280;41332;42.702;23.200;2023-06-04T11:37:40;94334.03;;;19.91;65.36
55468;BME280;41332;42.702;23.200;2023-06-04T11:40:17;94326.81;;;19.92;66.94
55468;BME280;41332;42.702;23.200;2023-06-04T11:42:44;94322.75;;;20.23;66.91
55468;BME280;41332;42.702;23.200;2023-06-04T11:45:12;94333.91;;;20.58;67.23
55468;BME280;41332;42.702;23.200;2023-06-04T11:47:38;94336.47;;;20.25;63.97
55468;BME280;41332;42.702;23.200;2023-06-04T11:50:04;94329.97;;;20.26;63.70
55468;BME280;41332;42.702;23.200;2023-06-04T11:52:30;94336.91;;;20.38;63.75
55468;BME280;41332;42.702;23.200;2023-06-04T11:54:55;94336.53;;;20.44;63.38
55468;BME280;41332;42.702;23.200;2023-06-04T11:57:21;94332.19;;;20.06;65.73
55468;BME280;41332;42.702;23.200;2023-06-04T11:59:47;94329.19;;;20.19;63.71
55468;BME280;41332;42.702;23.200;2023-06-04T12:05:41;94323.84;;;20.12;66.84
55468;BME280;41332;42.702;23.200;2023-06-04T12:08:09;94321.47;;;19.88;64.83
55468;BME280;41332;42.702;23.200;2023-06-04T12:10:39;94337.03;;;19.83;66.01
55468;BME280;41332;42.702;23.200;2023-06-04T12:13:17;94323.09;;;20.15;67.01
55468;BME280;41332;42.702;23.200;2023-06-04T12:15:52;94325.47;;;20.45;66.57
55468;BME280;41332;42.702;23.200;2023-06-04T12:21:22;94324.31;;;20.39;65.51
55468;BME280;41332;42.702;23.200;2023-06-04T12:27:08;94335.31;;;20.19;63.69
55468;BME280;41332;42.702;23.200;2023-06-04T12:29:34;94334.69;;;19.74;66.39
55468;BME280;41332;42.702;23.200;2023-06-04T12:32:09;94335.66;;;20.21;68.18
55468;BME280;41332;42.702;23.200;2023-06-04T12:34:37;94345.19;;;20.19;64.95
55468;BME280;41332;42.702;23.200;2023-06-04T12:37:13;94349.63;;;19.93;65.73
55468;BME280;41332;42.702;23.200;2023-06-04T12:39:39;94341.47;;;19.64;66.64
55468;BME280;41332;42.702;23.200;2023-06-04T12:42:10;94336.44;;;19.48;67.92
55468;BME280;41332;42.702;23.200;2023-06-04T12:44:37;94335.41;;;19.71;70.74
55468;BME280;41332;42.702;23.200;2023-06-04T12:47:03;94342.00;;;19.88;70.13
55468;BME280;41332;42.702;23.200;2023-06-04T12:49:29;94339.41;;;19.99;70.17
55468;BME280;41332;42.702;23.200;2023-06-04T12:51:57;94341.09;;;19.62;67.79
55468;BME280;41332;42.702;23.200;2023-06-04T12:54:32;94347.19;;;19.66;69.86
55468;BME280;41332;42.702;23.200;2023-06-04T12:56:58;94338.66;;;19.42;68.98
55468;BME280;41332;42.702;23.200;2023-06-04T12:59:27;94335.53;;;19.26;69.73
55468;BME280;41332;42.702;23.200;2023-06-04T13:01:56;94337.69;;;19.09;69.23
55468;BME280;41332;42.702;23.200;2023-06-04T13:04:22;94325.78;;;19.00;70.60